Search for airport 
image banner adimage banner adimage banner ad
image banner ad

PS26 - Banning

Located in Natrona Heights, United States

ICAO - PS26, IATA -

Data provided by Airmate  

General information

Coordinates: N40°38'5" W79°44'39"
Elevation is 1200 feet MSL.
Magnetic variation is -08° East
View others Airports in Pennsylvania

Operational data

Special qualification required
Current time UTC:
Current local time:
METAR: KBTP 061207Z AUTO 24005KT 9SM BKN005 04/04 A3013 RMK AO2
View NOTAMs / SUP AIP / TFR affecting this airport [VIEW]
Communications frequencies: [VIEW]

Runways:

Airport contact information

Address: Natrona Heights United States

Satellite view of PS26